Terminal Aerodrome Forecast
Issued by NWS Charleston, WV

Current Version | Previous Version | Text Only | Print | Product List | Glossary Off
Versions: 1 2 3 4 5 6 7 8 9 10 11 12 13 14 15 16 17 18 19 20 21 22 23

301
FTUS41 KRLX 251120
TAFCRW
TAF
KCRW 251120Z 2512/2612 00000KT P6SM -RA OVC060
      TEMPO 2514/2518 BKN025
     FM251800 03004KT P6SM BKN040
     FM260100 00000KT P6SM SCT040
     FM260500 00000KT 5SM BR SCT040
     FM260900 00000KT 2SM BR FEW001 SCT010=

USA.gov is the U.S. government's official web portal to all federal, state and local government web resources and services.